Time;durP1;ratioP1;P1;durP2;ratioP2;P2;SDS_P1;SDS_P2;PMS_P1;PMS_P2;Temp;Humidity;BMP_temperature;BMP_pressure;BME280_temperature;BME280_humidity;BME280_pressure;Samples;Min_cycle;Max_cycle;Signal;HPM_P1;HPM_P2
2022/07/18 00:01:35;;;;;;;;;;;;;;;37.33;19.44;101216.13;4418575;32;19987;-69
2022/07/18 00:04:00;;;;;;;;;;;;;;;37.59;19.21;101223.25;4419392;32;20302;-69
2022/07/18 00:06:26;;;;;;;;;;;;;;;37.33;19.47;101215.38;4417947;32;20401;-68
2022/07/18 00:08:52;;;;;;;;;;;;;;;37.74;19.09;101226.69;4419528;32;20022;-69
2022/07/18 00:11:19;;;;;;;;;;;;;;;37.78;19.05;101220.34;4422033;32;21668;-68
2022/07/18 00:13:44;;;;;;;;;;;;;;;37.74;19.06;101217.88;4420325;32;19961;-68
2022/07/18 00:16:10;;;;;;;;;;;;;;;37.82;19.00;101217.69;4415298;32;20303;-69
2022/07/18 00:18:35;;;;;;;;;;;;;;;37.60;19.17;101210.88;4418015;32;20676;-68
2022/07/18 00:21:01;;;;;;;;;;;;;;;37.67;19.15;101209.97;4419421;32;20387;-69
2022/07/18 00:23:26;;;;;;;;;;;;;;;37.35;19.44;101200.84;4419197;32;20344;-69
2022/07/18 00:25:51;;;;;;;;;;;;;;;37.61;19.20;101202.84;4416014;32;20495;-69
2022/07/18 00:28:17;;;;;;;;;;;;;;;37.85;18.93;101205.47;4415507;32;20717;-69
2022/07/18 00:30:43;;;;;;;;;;;;;;;37.73;19.03;101204.56;4418972;32;20028;-69
2022/07/18 00:33:08;;;;;;;;;;;;;;;37.77;18.99;101215.84;4419685;32;20012;-69
2022/07/18 00:35:34;;;;;;;;;;;;;;;37.80;18.94;101206.56;4419172;32;20064;-69
2022/07/18 00:38:01;;;;;;;;;;;;;;;37.73;19.01;101207.50;4418569;32;20413;-69
2022/07/18 00:40:27;;;;;;;;;;;;;;;37.95;18.79;101215.03;4421549;32;20303;-69
2022/07/18 00:42:52;;;;;;;;;;;;;;;37.82;18.92;101209.66;4420621;32;20440;-68
2022/07/18 00:45:18;;;;;;;;;;;;;;;37.62;19.13;101216.16;4421479;32;19961;-68
2022/07/18 00:47:43;;;;;;;;;;;;;;;37.87;18.89;101214.44;4416811;32;19983;-68
2022/07/18 00:50:09;;;;;;;;;;;;;;;37.92;18.82;101219.22;4417185;32;20015;-68
2022/07/18 00:52:36;;;;;;;;;;;;;;;38.05;18.68;101212.09;4417797;32;19965;-68
2022/07/18 00:55:02;;;;;;;;;;;;;;;38.08;18.65;101213.78;4418003;32;19961;-68
2022/07/18 00:57:27;;;;;;;;;;;;;;;38.06;18.67;101215.81;4421866;32;20429;-68
2022/07/18 01:02:39;;;;;;;;;;;;;;;38.02;18.66;101209.63;4422216;32;20205;-68
2022/07/18 01:05:06;;;;;;;;;;;;;;;38.13;18.56;101214.91;4419288;32;20331;-69
2022/07/18 01:07:31;;;;;;;;;;;;;;;37.87;18.81;101211.50;4422250;32;19980;-68
2022/07/18 01:09:58;;;;;;;;;;;;;;;37.94;18.78;101215.66;4420949;32;20276;-68
2022/07/18 01:12:25;;;;;;;;;;;;;;;38.01;18.73;101208.09;4420886;32;20004;-68
2022/07/18 01:14:50;;;;;;;;;;;;;;;37.91;18.81;101205.16;4422023;32;20330;-68
2022/07/18 01:17:17;;;;;;;;;;;;;;;38.02;18.72;101206.69;4420670;32;21442;-68
2022/07/18 01:19:43;;;;;;;;;;;;;;;38.11;18.61;101200.03;4408834;32;21085;-68
2022/07/18 01:22:09;;;;;;;;;;;;;;;38.14;18.56;101210.53;4417878;32;19989;-68
2022/07/18 01:24:34;;;;;;;;;;;;;;;37.97;18.73;101196.78;4421053;32;20295;-68
2022/07/18 01:27:00;;;;;;;;;;;;;;;37.94;18.74;101198.03;4419124;32;19964;-68
2022/07/18 01:29:26;;;;;;;;;;;;;;;38.06;18.64;101204.81;4421064;32;19984;-68
2022/07/18 01:31:51;;;;;;;;;;;;;;;37.92;18.74;101198.66;4419419;32;19954;-69
2022/07/18 01:34:23;;;;;;;;;;;;;;;37.95;18.74;101199.59;4422094;32;20085;-69
2022/07/18 01:36:49;;;;;;;;;;;;;;;38.06;18.60;101196.00;4421413;32;20384;-68
2022/07/18 01:39:14;;;;;;;;;;;;;;;37.99;18.67;101196.94;4423565;32;19989;-68
2022/07/18 01:41:40;;;;;;;;;;;;;;;37.82;18.81;101200.84;4419256;32;19960;-68
2022/07/18 01:44:06;;;;;;;;;;;;;;;37.98;18.68;101192.47;4417402;32;19997;-68
2022/07/18 01:46:32;;;;;;;;;;;;;;;37.81;18.83;101196.37;4418395;32;19988;-68
2022/07/18 01:48:57;;;;;;;;;;;;;;;38.01;18.67;101185.34;4417454;32;20013;-68
2022/07/18 01:51:23;;;;;;;;;;;;;;;37.15;19.46;101181.63;4419590;32;20001;-68
2022/07/18 01:53:59;;;;;;;;;;;;;;;37.69;18.99;101189.56;4417075;32;20650;-67
2022/07/18 01:56:24;;;;;;;;;;;;;;;37.49;19.18;101172.56;4418778;32;19997;-69
2022/07/18 01:58:50;;;;;;;;;;;;;;;37.58;19.13;101177.66;4418580;32;19992;-69
2022/07/18 02:01:16;;;;;;;;;;;;;;;37.38;19.26;101171.03;4422792;32;20089;-69
2022/07/18 02:03:41;;;;;;;;;;;;;;;37.22;19.42;101171.94;4418085;32;19976;-69
2022/07/18 02:06:06;;;;;;;;;;;;;;;37.07;19.54;101163.38;4421236;32;20354;-69
2022/07/18 02:08:32;;;;;;;;;;;;;;;37.15;19.49;101170.66;4420658;32;19993;-69
2022/07/18 02:10:57;;;;;;;;;;;;;;;37.07;19.58;101166.31;4421377;32;20351;-69
2022/07/18 02:13:23;;;;;;;;;;;;;;;36.91;19.70;101168.00;4421622;32;20302;-69
2022/07/18 02:15:49;;;;;;;;;;;;;;;36.91;19.64;101170.94;4418226;32;19992;-69
2022/07/18 02:18:14;;;;;;;;;;;;;;;36.91;19.53;101168.78;4419198;32;20004;-68
2022/07/18 02:20:40;;;;;;;;;;;;;;;36.86;19.65;101172.00;4421141;32;19986;-68
2022/07/18 02:23:07;;;;;;;;;;;;;;;36.89;19.49;101159.81;4422259;32;19993;-68
2022/07/18 02:25:33;;;;;;;;;;;;;;;36.99;19.27;101154.72;4421012;32;20035;-68
2022/07/18 02:27:59;;;;;;;;;;;;;;;36.98;18.92;101153.19;4419528;32;20644;-68
2022/07/18 02:30:25;;;;;;;;;;;;;;;37.16;18.81;101159.69;4418398;32;20308;-68
2022/07/18 02:32:50;;;;;;;;;;;;;;;37.01;18.73;101154.12;4422546;32;19972;-68
2022/07/18 02:35:16;;;;;;;;;;;;;;;37.27;18.36;101156.94;4414888;32;20025;-68
2022/07/18 02:37:41;;;;;;;;;;;;;;;37.25;18.23;101150.16;4418976;32;19976;-68
2022/07/18 02:40:08;;;;;;;;;;;;;;;37.29;18.09;101150.47;4419033;32;20349;-68
2022/07/18 02:42:33;;;;;;;;;;;;;;;37.23;18.00;101147.06;4423944;32;20082;-68
2022/07/18 02:44:58;;;;;;;;;;;;;;;37.32;17.73;101144.12;4418562;32;20004;-68
2022/07/18 02:47:24;;;;;;;;;;;;;;;37.49;17.34;101143.94;4420764;32;20037;-68
2022/07/18 02:49:49;;;;;;;;;;;;;;;37.48;17.14;101150.44;4418697;32;20330;-68
2022/07/18 02:52:15;;;;;;;;;;;;;;;37.47;16.93;101143.81;4420469;32;19958;-68
2022/07/18 02:54:40;;;;;;;;;;;;;;;37.54;16.74;101145.03;4417490;32;20409;-68
2022/07/18 02:57:06;;;;;;;;;;;;;;;37.32;16.58;101135.31;4418546;32;19953;-68
2022/07/18 02:59:32;;;;;;;;;;;;;;;37.33;16.49;101136.09;4420697;32;20011;-68
2022/07/18 03:01:57;;;;;;;;;;;;;;;37.24;16.65;101125.88;4419172;32;20001;-68
2022/07/18 03:04:23;;;;;;;;;;;;;;;37.45;16.20;101134.06;4419738;32;19997;-68
2022/07/18 03:06:49;;;;;;;;;;;;;;;37.39;16.00;101133.62;4416018;32;19953;-68
2022/07/18 03:09:15;;;;;;;;;;;;;;;37.28;16.05;101126.22;4420241;32;19975;-68
2022/07/18 03:11:40;;;;;;;;;;;;;;;37.21;16.03;101129.31;4420364;32;20082;-68
2022/07/18 03:14:07;;;;;;;;;;;;;;;37.27;15.88;101133.47;4418054;32;19961;-68
2022/07/18 03:16:33;;;;;;;;;;;;;;;37.36;15.79;101131.94;4417843;32;20504;-68
2022/07/18 03:18:58;;;;;;;;;;;;;;;37.15;15.82;101122.94;4419655;32;20009;-68
2022/07/18 03:21:24;;;;;;;;;;;;;;;37.11;15.72;101123.38;4418543;32;19953;-68
2022/07/18 03:23:50;;;;;;;;;;;;;;;37.11;15.67;101119.66;4418406;32;20383;-68
2022/07/18 03:26:15;;;;;;;;;;;;;;;36.73;15.82;101120.41;4416850;32;19968;-68
2022/07/18 03:28:41;;;;;;;;;;;;;;;36.37;16.00;101122.59;4419815;32;20025;-68
2022/07/18 03:31:06;;;;;;;;;;;;;;;36.40;15.94;101122.16;4419068;32;20309;-68
2022/07/18 03:33:32;;;;;;;;;;;;;;;36.37;15.76;101114.59;4419332;32;20026;-68
2022/07/18 03:35:57;;;;;;;;;;;;;;;36.64;15.57;101102.78;4419307;32;20469;-68
2022/07/18 03:38:23;;;;;;;;;;;;;;;36.45;15.62;101105.66;4419574;32;20410;-68
2022/07/18 03:40:49;;;;;;;;;;;;;;;36.19;15.62;101098.44;4416231;32;19981;-68
2022/07/18 03:43:14;;;;;;;;;;;;;;;35.86;15.82;101100.16;4419293;32;19985;-68
2022/07/18 03:45:40;;;;;;;;;;;;;;;35.87;15.60;101096.62;4418691;32;19974;-68
2022/07/18 03:48:05;;;;;;;;;;;;;;;35.44;15.91;101106.19;4418142;32;19957;-68
2022/07/18 03:50:31;;;;;;;;;;;;;;;35.81;15.59;101104.13;4419465;32;19990;-68
2022/07/18 03:52:57;;;;;;;;;;;;;;;35.99;15.43;101102.69;4417016;32;19996;-68
2022/07/18 03:55:22;;;;;;;;;;;;;;;35.73;15.40;101101.28;4417052;32;20033;-68
2022/07/18 03:57:48;;;;;;;;;;;;;;;35.54;15.50;101097.44;4418025;32;19968;-68
2022/07/18 04:00:13;;;;;;;;;;;;;;;35.47;15.50;101104.97;4418710;32;20378;-68
2022/07/18 04:02:39;;;;;;;;;;;;;;;35.57;15.36;101108.75;4418013;32;20776;-68
2022/07/18 04:05:05;;;;;;;;;;;;;;;35.62;15.37;101104.00;4417719;32;20363;-68
2022/07/18 04:07:31;;;;;;;;;;;;;;;35.39;15.64;101104.28;4419423;32;19977;-68
2022/07/18 04:09:56;;;;;;;;;;;;;;;35.19;15.71;101098.88;4421391;32;20005;-68
2022/07/18 04:12:22;;;;;;;;;;;;;;;35.41;15.57;101098.63;4420146;32;20042;-69
2022/07/18 04:14:51;;;;;;;;;;;;;;;35.26;15.65;101092.94;4421722;32;19993;-68
2022/07/18 04:17:23;;;;;;;;;;;;;;;35.47;15.48;101089.56;4408079;32;20000;-68
2022/07/18 04:19:49;;;;;;;;;;;;;;;35.25;15.47;101090.59;4418140;32;20003;-68
2022/07/18 04:22:16;;;;;;;;;;;;;;;35.51;15.31;101096.53;4406396;32;19961;-68
2022/07/18 04:24:41;;;;;;;;;;;;;;;35.82;15.01;101094.72;4417382;32;20339;-68
2022/07/18 04:27:07;;;;;;;;;;;;;;;35.89;14.98;101087.22;4417612;32;19953;-68
2022/07/18 04:29:32;;;;;;;;;;;;;;;36.02;14.88;101093.44;4418267;32;19954;-68
2022/07/18 04:31:58;;;;;;;;;;;;;;;35.95;14.99;101087.69;4419941;32;20005;-68
2022/07/18 04:34:24;;;;;;;;;;;;;;;36.19;14.86;101084.56;4418156;32;19985;-68
2022/07/18 04:36:49;;;;;;;;;;;;;;;36.27;14.87;101080.72;4421722;32;20031;-68
2022/07/18 04:39:16;;;;;;;;;;;;;;;36.40;14.79;101065.66;4419730;32;20458;-68
2022/07/18 04:41:42;;;;;;;;;;;;;;;36.35;14.65;101069.69;4421719;32;19961;-68
2022/07/18 04:44:08;;;;;;;;;;;;;;;36.26;14.80;101076.25;4424783;32;20017;-69
2022/07/18 04:46:34;;;;;;;;;;;;;;;36.65;14.50;101072.06;4421300;32;19957;-68
2022/07/18 04:48:59;;;;;;;;;;;;;;;36.22;14.77;101073.00;4422269;32;20024;-68
2022/07/18 04:51:25;;;;;;;;;;;;;;;36.65;14.50;101060.34;4422014;32;20252;-68
2022/07/18 04:53:51;;;;;;;;;;;;;;;36.56;14.46;101058.16;4423639;32;20028;-68
2022/07/18 04:56:16;;;;;;;;;;;;;;;36.53;14.60;101057.22;4419907;32;20409;-68
2022/07/18 04:58:42;;;;;;;;;;;;;;;36.52;14.50;101063.69;4421329;32;20317;-68
2022/07/18 05:01:07;;;;;;;;;;;;;;;36.55;14.55;101069.09;4419935;32;20316;-68
2022/07/18 05:03:33;;;;;;;;;;;;;;;36.63;14.52;101068.97;4421972;32;19993;-68
2022/07/18 05:05:58;;;;;;;;;;;;;;;36.60;14.61;101062.19;4419135;32;19990;-68
2022/07/18 05:08:24;;;;;;;;;;;;;;;36.54;14.67;101058.00;4419421;32;19993;-68
2022/07/18 05:10:50;;;;;;;;;;;;;;;36.67;14.62;101052.47;4419241;32;20558;-68
2022/07/18 05:13:16;;;;;;;;;;;;;;;36.53;14.73;101057.22;4421248;32;19994;-68
2022/07/18 05:15:41;;;;;;;;;;;;;;;36.34;14.92;101057.19;4421917;32;19957;-68
2022/07/18 05:18:07;;;;;;;;;;;;;;;36.31;14.86;101051.75;4418875;32;20344;-68
2022/07/18 05:20:32;;;;;;;;;;;;;;;36.90;14.53;101063.78;4421525;32;19986;-68
2022/07/18 05:22:58;;;;;;;;;;;;;;;36.65;14.63;101057.41;4421469;32;20357;-68
2022/07/18 05:25:24;;;;;;;;;;;;;;;36.21;14.98;101054.66;4422357;32;19965;-69
2022/07/18 05:27:50;;;;;;;;;;;;;;;36.42;14.90;101054.09;4422426;32;20020;-68
2022/07/18 05:30:15;;;;;;;;;;;;;;;36.40;14.79;101060.59;4421175;32;19961;-68
2022/07/18 05:32:41;;;;;;;;;;;;;;;36.80;14.56;101057.13;4424775;32;20283;-68
2022/07/18 05:35:08;;;;;;;;;;;;;;;36.92;14.38;101058.81;4423156;32;20034;-68
2022/07/18 05:37:35;;;;;;;;;;;;;;;36.74;14.48;101060.34;4421585;32;20094;-68
2022/07/18 05:40:00;;;;;;;;;;;;;;;36.66;14.48;101058.94;4418412;32;20005;-68
2022/07/18 05:42:26;;;;;;;;;;;;;;;37.20;14.00;101057.28;4423109;32;20371;-68
2022/07/18 05:44:51;;;;;;;;;;;;;;;37.42;13.89;101058.94;4418491;32;20464;-69
2022/07/18 05:47:18;;;;;;;;;;;;;;;37.52;13.66;101062.66;4419478;32;19996;-68
2022/07/18 05:49:44;;;;;;;;;;;;;;;37.31;13.61;101054.50;4416917;32;20025;-68
2022/07/18 05:52:09;;;;;;;;;;;;;;;37.02;14.00;101061.78;4421345;32;20101;-68
2022/07/18 05:54:35;;;;;;;;;;;;;;;37.22;13.78;101054.50;4423511;32;20052;-68
2022/07/18 05:57:01;;;;;;;;;;;;;;;36.84;14.16;101057.44;4420915;32;20426;-67
2022/07/18 05:59:26;;;;;;;;;;;;;;;37.23;13.82;101048.03;4418317;32;19981;-67
2022/07/18 06:01:52;;;;;;;;;;;;;;;37.32;13.90;101056.06;4420779;32;20444;-67
2022/07/18 06:04:18;;;;;;;;;;;;;;;37.39;13.96;101060.22;4420533;32;20382;-68
2022/07/18 06:06:44;;;;;;;;;;;;;;;37.60;13.92;101061.09;4421132;32;20369;-68
2022/07/18 06:09:10;;;;;;;;;;;;;;;37.70;13.80;101066.97;4421578;32;20664;-68
2022/07/18 06:11:36;;;;;;;;;;;;;;;37.81;13.87;101061.22;4424509;32;19965;-68
2022/07/18 06:14:03;;;;;;;;;;;;;;;38.18;13.64;101064.63;4420179;32;20328;-67
2022/07/18 06:16:29;;;;;;;;;;;;;;;38.13;13.80;101067.91;4421939;32;20324;-68
2022/07/18 06:18:54;;;;;;;;;;;;;;;38.65;13.36;101071.66;4420968;32;20308;-68
2022/07/18 06:21:20;;;;;;;;;;;;;;;38.60;13.39;101069.81;4417856;32;20037;-68
2022/07/18 06:23:45;;;;;;;;;;;;;;;38.97;13.16;101065.06;4419284;32;19950;-68
2022/07/18 06:26:11;;;;;;;;;;;;;;;39.14;12.87;101064.78;4417096;32;20353;-68
2022/07/18 06:28:36;;;;;;;;;;;;;;;39.22;12.80;101071.19;4417559;32;20355;-68
2022/07/18 06:31:02;;;;;;;;;;;;;;;38.81;13.19;101072.78;4416957;32;19997;-68
2022/07/18 06:33:28;;;;;;;;;;;;;;;39.40;12.78;101060.66;4417569;32;20038;-68
2022/07/18 06:35:53;;;;;;;;;;;;;;;39.27;12.67;101070.06;4414616;32;19991;-68
2022/07/18 06:38:19;;;;;;;;;;;;;;;39.69;12.55;101067.78;4416143;32;19969;-67
2022/07/18 06:40:45;;;;;;;;;;;;;;;39.58;12.56;101065.59;4412566;32;20480;-67
2022/07/18 06:43:10;;;;;;;;;;;;;;;39.63;12.85;101063.66;4404752;32;19996;-68
2022/07/18 06:45:36;;;;;;;;;;;;;;;39.89;12.67;101070.53;4411748;32;19962;-68
2022/07/18 06:48:02;;;;;;;;;;;;;;;40.33;12.29;101071.19;4407080;32;20308;-67
2022/07/18 06:50:28;;;;;;;;;;;;;;;40.36;11.97;101066.97;4411068;32;20439;-68
2022/07/18 06:52:53;;;;;;;;;;;;;;;40.76;11.82;101065.75;4406332;32;19984;-67
2022/07/18 06:55:19;;;;;;;;;;;;;;;40.89;11.75;101065.84;4403205;32;19984;-68
2022/07/18 06:57:45;;;;;;;;;;;;;;;41.12;11.46;101067.97;4412375;32;19961;-67
2022/07/18 07:00:13;;;;;;;;;;;;;;;40.73;12.31;101064.09;4406451;32;20008;-69
2022/07/18 07:02:46;;;;;;;;;;;;;;;41.43;11.96;101062.44;4405208;32;20381;-67
2022/07/18 07:05:13;;;;;;;;;;;;;;;41.54;12.16;101070.50;4405378;32;20699;-69
2022/07/18 07:07:38;;;;;;;;;;;;;;;41.52;12.30;101066.66;4404591;32;20892;-67
2022/07/18 07:10:05;;;;;;;;;;;;;;;41.64;12.09;101068.13;4404964;32;20394;-68
2022/07/18 07:12:37;;;;;;;;;;;;;;;41.86;11.79;101068.59;4406365;32;20023;-70
2022/07/18 07:15:02;;;;;;;;;;;;;;;41.87;11.88;101076.81;4405986;32;19993;-69
2022/07/18 07:17:29;;;;;;;;;;;;;;;41.86;11.90;101066.44;4407807;32;20035;-69
2022/07/18 07:19:55;;;;;;;;;;;;;;;41.05;12.37;101055.03;4406955;32;20348;-69
2022/07/18 07:22:21;;;;;;;;;;;;;;;41.56;12.10;101070.59;4409318;32;20017;-70
2022/07/18 07:24:46;;;;;;;;;;;;;;;41.58;12.00;101064.81;4407947;32;20028;-70
2022/07/18 07:27:12;;;;;;;;;;;;;;;41.69;11.93;101060.25;4404706;32;20328;-69
2022/07/18 07:29:37;;;;;;;;;;;;;;;41.38;12.07;101070.28;4406471;32;19957;-69
2022/07/18 07:32:03;;;;;;;;;;;;;;;41.01;11.97;101063.63;4408033;32;20161;-69
2022/07/18 07:34:30;;;;;;;;;;;;;;;41.06;11.81;101067.59;4407239;32;20417;-69
2022/07/18 07:36:56;;;;;;;;;;;;;;;41.31;11.62;101067.63;4405983;32;20013;-69
2022/07/18 07:39:22;;;;;;;;;;;;;;;41.38;11.55;101073.25;4391688;32;21183;-70
2022/07/18 07:41:47;;;;;;;;;;;;;;;41.27;11.82;101065.22;4405605;32;19977;-70
2022/07/18 07:44:12;;;;;;;;;;;;;;;41.64;11.36;101058.47;4405495;32;21168;-69
2022/07/18 07:46:38;;;;;;;;;;;;;;;41.75;11.30;101066.50;4408391;32;19993;-68
2022/07/18 07:49:04;;;;;;;;;;;;;;;41.68;11.29;101068.34;4405763;32;21051;-70
2022/07/18 07:51:29;;;;;;;;;;;;;;;41.43;11.40;101060.25;4406583;32;20028;-67
2022/07/18 07:53:55;;;;;;;;;;;;;;;41.54;11.27;101067.56;4406925;32;19981;-69
2022/07/18 07:56:20;;;;;;;;;;;;;;;41.52;10.95;101063.69;4404974;32;20097;-69
2022/07/18 07:58:46;;;;;;;;;;;;;;;41.21;11.16;101064.09;4405718;32;20224;-69
2022/07/18 08:01:12;;;;;;;;;;;;;;;41.57;10.98;101069.22;4409049;32;19981;-69
2022/07/18 08:03:37;;;;;;;;;;;;;;;41.26;11.23;101057.03;4407630;32;20020;-68
2022/07/18 08:06:03;;;;;;;;;;;;;;;41.42;11.28;101063.87;4405565;32;19995;-70
2022/07/18 08:08:29;;;;;;;;;;;;;;;41.79;10.95;101057.87;4404782;32;19985;-69
2022/07/18 08:10:54;;;;;;;;;;;;;;;41.39;11.02;101063.00;4409625;32;20037;-69
2022/07/18 08:13:20;;;;;;;;;;;;;;;41.86;10.95;101063.47;4410457;32;19997;-69
2022/07/18 08:15:45;;;;;;;;;;;;;;;41.81;11.02;101064.66;4409537;32;20011;-70
2022/07/18 08:18:11;;;;;;;;;;;;;;;41.43;11.21;101054.34;4410023;32;20489;-69
2022/07/18 08:20:36;;;;;;;;;;;;;;;41.47;11.36;101059.69;4410338;32;19977;-70
2022/07/18 08:23:04;;;;;;;;;;;;;;;41.28;11.47;101057.91;4411851;32;20044;-70
2022/07/18 08:25:32;;;;;;;;;;;;;;;41.40;11.42;101057.81;4411592;32;20901;-69
2022/07/18 08:27:57;;;;;;;;;;;;;;;41.44;11.28;101046.22;4408280;32;20856;-70
2022/07/18 08:30:23;;;;;;;;;;;;;;;41.27;11.23;101055.59;4410930;32;19997;-70
2022/07/18 08:32:50;;;;;;;;;;;;;;;41.24;11.56;101048.03;4409741;32;20039;-70
2022/07/18 08:35:16;;;;;;;;;;;;;;;41.40;11.41;101046.78;4412751;32;19961;-70
2022/07/18 08:37:42;;;;;;;;;;;;;;;41.27;11.45;101047.50;4412707;32;19958;-70
2022/07/18 08:40:08;;;;;;;;;;;;;;;41.44;11.47;101043.28;4411193;32;20024;-69
2022/07/18 08:42:34;;;;;;;;;;;;;;;41.58;11.26;101047.09;4411406;32;20039;-69
2022/07/18 08:45:00;;;;;;;;;;;;;;;42.13;10.91;101045.78;4410612;32;20495;-69
2022/07/18 08:47:28;;;;;;;;;;;;;;;42.20;10.88;101043.91;4409885;32;19957;-69
2022/07/18 08:49:54;;;;;;;;;;;;;;;42.31;10.69;101049.78;4408968;32;20001;-69
2022/07/18 08:52:20;;;;;;;;;;;;;;;42.72;10.50;101044.59;4413287;32;20021;-69
2022/07/18 08:54:48;;;;;;;;;;;;;;;42.70;10.69;101046.69;4411795;32;20428;-68
2022/07/18 08:57:14;;;;;;;;;;;;;;;43.12;10.42;101048.16;4407887;32;20321;-68
2022/07/18 08:59:40;;;;;;;;;;;;;;;42.97;10.20;101050.34;4410057;32;19993;-69
2022/07/18 09:02:06;;;;;;;;;;;;;;;43.13;10.35;101050.47;4409689;32;20459;-68
2022/07/18 09:04:39;;;;;;;;;;;;;;;43.22;10.19;101042.72;4408773;32;19969;-70
2022/07/18 09:07:07;;;;;;;;;;;;;;;43.27;10.11;101047.44;4409220;32;19968;-68
2022/07/18 09:09:32;;;;;;;;;;;;;;;43.49;9.87;101048.56;4411690;32;19973;-68
2022/07/18 09:12:01;;;;;;;;;;;;;;;44.05;9.54;101039.44;4407579;32;20758;-69
2022/07/18 09:14:28;;;;;;;;;;;;;;;43.97;9.27;101048.72;4409557;32;19965;-68
2022/07/18 09:16:59;;;;;;;;;;;;;;;44.17;8.90;101043.72;4408209;32;19968;-69
2022/07/18 09:19:25;;;;;;;;;;;;;;;44.38;8.97;101049.19;4408196;32;19993;-69
2022/07/18 09:21:51;;;;;;;;;;;;;;;44.46;8.73;101043.63;4392981;32;19992;-70
2022/07/18 09:24:17;;;;;;;;;;;;;;;44.80;8.60;101044.41;4410348;32;19993;-69
2022/07/18 09:26:43;;;;;;;;;;;;;;;45.25;8.33;101041.94;4409471;32;19969;-70
2022/07/18 09:29:13;;;;;;;;;;;;;;;45.32;8.16;101046.66;4411098;32;20068;-70
2022/07/18 09:31:39;;;;;;;;;;;;;;;45.07;8.34;101041.16;4408188;32;19969;-70
2022/07/18 09:34:06;;;;;;;;;;;;;;;45.12;8.01;101042.84;4410788;32;20027;-69
2022/07/18 09:36:36;;;;;;;;;;;;;;;45.62;7.95;101036.03;4398060;32;20009;-70
2022/07/18 09:39:16;;;;;;;;;;;;;;;45.56;7.61;101029.09;4403269;32;20496;-68
2022/07/18 09:41:42;;;;;;;;;;;;;;;46.07;7.27;101032.63;4409372;32;19972;-68
2022/07/18 09:44:15;;;;;;;;;;;;;;;46.57;7.11;101040.50;4407861;32;20000;-68
2022/07/18 09:46:58;;;;;;;;;;;;;;;47.08;6.91;101034.13;4402571;32;20020;-70
2022/07/18 09:49:28;;;;;;;;;;;;;;;46.85;5.97;101034.81;4403519;32;20091;-68
2022/07/18 09:52:09;;;;;;;;;;;;;;;47.15;5.77;101038.84;4405526;32;19997;-68
2022/07/18 09:54:36;;;;;;;;;;;;;;;47.27;5.82;101024.38;4406450;32;20040;-69
2022/07/18 09:57:02;;;;;;;;;;;;;;;47.29;5.92;101027.44;4408541;32;19994;-69
2022/07/18 09:59:27;;;;;;;;;;;;;;;47.13;5.66;101030.59;4407968;32;20630;-69
2022/07/18 10:02:00;;;;;;;;;;;;;;;47.18;5.82;101026.28;4409363;32;20007;-69
2022/07/18 10:04:27;;;;;;;;;;;;;;;47.27;5.98;101039.28;4408067;32;20418;-69
2022/07/18 10:06:52;;;;;;;;;;;;;;;47.36;5.97;101035.09;4407343;32;19993;-69
2022/07/18 10:09:18;;;;;;;;;;;;;;;46.91;6.37;101026.84;4403628;32;19997;-69
2022/07/18 10:11:43;;;;;;;;;;;;;;;47.41;6.21;101025.59;4408862;32;20004;-69
2022/07/18 10:14:09;;;;;;;;;;;;;;;47.57;6.02;101020.16;4408559;32;20005;-69
2022/07/18 10:16:35;;;;;;;;;;;;;;;48.10;5.72;101031.50;4409939;32;20016;-69
2022/07/18 10:19:00;;;;;;;;;;;;;;;48.34;5.42;101028.50;4407425;32;20034;-69
2022/07/18 10:21:29;;;;;;;;;;;;;;;48.42;5.44;101035.44;4408212;32;19997;-69
2022/07/18 10:23:55;;;;;;;;;;;;;;;48.61;5.37;101028.53;4393271;32;20009;-69
2022/07/18 10:26:22;;;;;;;;;;;;;;;49.05;5.39;101026.78;4410375;32;20019;-69
2022/07/18 10:31:33;;;;;;;;;;;;;;;49.43;5.21;101023.97;3925267;32;16355506;-69
2022/07/18 10:44:44;;;;;;;;;;;;;;;50.87;4.20;101021.13;3943238;32;15728193;-69
2022/07/18 10:47:12;;;;;;;;;;;;;;;50.87;4.20;101021.13;4408690;32;20024;-69
2022/07/18 10:57:40;;;;;;;;;;;;;;;51.56;3.84;101023.03;3953150;31;15717242;-68
2022/07/18 11:00:11;;;;;;;;;;;;;;;51.61;3.80;101023.84;4430141;32;20292;-69
2022/07/18 11:02:40;;;;;;;;;;;;;;;51.67;3.77;101014.97;4428245;32;19985;-69
2022/07/18 11:15:58;;;;;;;;;;;;;;;52.73;3.14;101022.31;3948604;32;15725442;-68
2022/07/18 11:18:25;;;;;;;;;;;;;;;52.73;3.14;101022.31;4427856;32;20008;-69
2022/07/18 11:20:51;;;;;;;;;;;;;;;52.29;3.35;101019.56;4426751;32;19989;-68
2022/07/18 11:25:56;;;;;;;;;;;;;;;52.73;3.37;101011.06;3955872;31;15716011;-70
2022/07/18 11:28:22;;;;;;;;;;;;;;;52.73;3.37;101011.06;4440418;32;20055;-68
2022/07/18 11:31:05;;;;;;;;;;;;;;;52.37;3.40;101009.87;4436637;32;19992;-68
2022/07/18 11:33:32;;;;;;;;;;;;;;;52.45;3.48;101009.97;4440805;32;20358;-68
2022/07/18 11:36:05;;;;;;;;;;;;;;;51.77;3.80;101006.84;4431596;32;20411;-69
2022/07/18 11:38:31;;;;;;;;;;;;;;;51.85;3.89;101000.19;4434936;32;20000;-70
2022/07/18 11:40:57;;;;;;;;;;;;;;;51.25;4.22;100994.78;4437264;32;20012;-69
2022/07/18 11:43:23;;;;;;;;;;;;;;;51.58;4.30;101002.03;4437209;32;20026;-69
2022/07/18 11:46:10;;;;;;;;;;;;;;;51.31;4.17;101003.16;4438500;32;20004;-69
2022/07/18 11:48:36;;;;;;;;;;;;;;;52.11;3.70;101003.56;4436898;32;20408;-69
2022/07/18 11:51:08;;;;;;;;;;;;;;;52.67;3.58;100995.19;4436903;32;20019;-69
2022/07/18 11:53:34;;;;;;;;;;;;;;;53.22;3.37;100997.94;4438867;32;19966;-69
2022/07/18 11:56:03;;;;;;;;;;;;;;;53.50;3.37;100999.66;4435854;32;19985;-70
2022/07/18 11:58:34;;;;;;;;;;;;;;;53.54;3.40;100994.41;4433728;32;20004;-70
2022/07/18 12:01:00;;;;;;;;;;;;;;;53.86;3.25;100991.59;4433087;32;20011;-70
2022/07/18 12:03:27;;;;;;;;;;;;;;;54.01;3.27;100984.12;4434372;32;20001;-70
2022/07/18 12:05:53;;;;;;;;;;;;;;;53.79;3.28;100983.28;4436998;32;19996;-70
2022/07/18 12:08:35;;;;;;;;;;;;;;;53.93;3.25;100975.09;4439047;32;19993;-70
2022/07/18 12:13:40;;;;;;;;;;;;;;;54.68;3.10;100970.75;3944833;32;15725568;-69
2022/07/18 12:16:06;;;;;;;;;;;;;;;54.68;3.10;100970.75;4421827;32;20367;-70
2022/07/18 12:18:33;;;;;;;;;;;;;;;54.83;3.10;100976.84;4417308;32;20476;-70
2022/07/18 12:21:06;;;;;;;;;;;;;;;55.05;3.03;100980.56;4418263;32;19977;-69
2022/07/18 12:23:31;;;;;;;;;;;;;;;53.70;3.45;100972.72;4414881;32;20294;-70
2022/07/18 12:25:57;;;;;;;;;;;;;;;54.49;3.00;100960.22;4416328;32;19989;-69
2022/07/18 12:28:24;;;;;;;;;;;;;;;54.01;3.07;100977.38;4415174;32;20426;-68
2022/07/18 12:30:50;;;;;;;;;;;;;;;53.76;2.92;100967.44;4415448;32;20020;-68
2022/07/18 12:33:16;;;;;;;;;;;;;;;53.71;3.13;100962.16;4417820;32;20013;-70
2022/07/18 12:35:42;;;;;;;;;;;;;;;53.96;3.20;100979.63;4417609;32;20010;-70
2022/07/18 12:38:09;;;;;;;;;;;;;;;53.94;2.95;100966.78;4403169;32;19973;-70
2022/07/18 12:40:40;;;;;;;;;;;;;;;53.83;3.07;100962.22;4419677;32;20476;-69
2022/07/18 12:43:08;;;;;;;;;;;;;;;53.68;3.15;100970.44;4421363;32;20352;-70
2022/07/18 12:45:34;;;;;;;;;;;;;;;53.91;3.15;100956.25;4419759;32;20037;-70
2022/07/18 12:48:00;;;;;;;;;;;;;;;53.42;3.39;100955.22;4417688;32;19968;-69
2022/07/18 12:50:26;;;;;;;;;;;;;;;54.12;3.23;100951.78;4420503;32;19964;-70
2022/07/18 12:52:52;;;;;;;;;;;;;;;54.08;3.09;100940.50;4420367;32;20008;-70
2022/07/18 12:55:17;;;;;;;;;;;;;;;54.14;3.23;100948.78;4419226;32;19953;-69
2022/07/18 12:57:43;;;;;;;;;;;;;;;53.99;3.29;100947.22;4417892;32;20412;-70
2022/07/18 13:00:09;;;;;;;;;;;;;;;54.25;3.19;100941.31;4419774;32;20470;-70
2022/07/18 13:02:35;;;;;;;;;;;;;;;54.06;3.42;100948.75;4416504;32;20094;-69
2022/07/18 13:05:01;;;;;;;;;;;;;;;54.66;3.29;100939.88;4419167;32;20001;-70
2022/07/18 13:07:27;;;;;;;;;;;;;;;55.28;3.04;100942.84;4416338;32;20657;-70
2022/07/18 13:09:52;;;;;;;;;;;;;;;54.87;3.33;100937.63;4417636;32;20077;-69
2022/07/18 13:12:19;;;;;;;;;;;;;;;55.57;3.08;100932.22;4419794;32;20012;-69
2022/07/18 13:14:44;;;;;;;;;;;;;;;55.70;3.14;100930.66;4417073;32;19977;-69